Terminal Aerodrome Forecast
Issued by NWS Lake Charles, LA

Home | Current Version | Previous Version | Text Only | Print | Product List | Glossary On
Versions: 1 2 3 4 5 6 7 8 9 10 11 12 13 14 15 16 17 18 19 20 21 22 23 24 25
045
FTUS44 KLCH 251729
TAFBPT
TAF
KBPT 251729Z 2518/2618 06009KT P6SM -SHRA OVC007
      TEMPO 2518/2522 2SM -RA BR OVC005
     FM260000 05006KT P6SM -SHRA OVC008
     FM260900 02006KT P6SM VCSH OVC008
     FM261200 02006KT P6SM BKN009
     FM261500 04008KT P6SM BKN015=

USA.gov is the U.S. government's official web portal to all federal, state and local government web resources and services.